createdAt,value
2022-12-17T00:01:40.017Z,-3.00
2022-12-17T00:07:01.835Z,-2.94
2022-12-17T00:12:23.699Z,-3.03
2022-12-17T00:17:45.535Z,-2.98
2022-12-17T00:23:07.447Z,-2.91
2022-12-17T00:28:29.256Z,-3.21
2022-12-17T00:33:51.067Z,-3.11
2022-12-17T00:39:13.843Z,-3.02
2022-12-17T00:44:35.687Z,-2.91
2022-12-17T00:49:57.510Z,-3.12
2022-12-17T00:55:19.363Z,-3.03
2022-12-17T01:00:42.054Z,-3.13
2022-12-17T01:06:04.177Z,-3.15
2022-12-17T01:11:26.130Z,-3.25
2022-12-17T01:16:48.101Z,-3.06
2022-12-17T01:22:09.962Z,-3.02
2022-12-17T01:27:31.853Z,-3.20
2022-12-17T01:33:00.018Z,-3.23
2022-12-17T01:38:21.826Z,-3.08
2022-12-17T01:43:43.981Z,-3.17
2022-12-17T01:49:07.586Z,-3.25
2022-12-17T01:54:29.440Z,-3.03
2022-12-17T02:00:06.563Z,-3.27
2022-12-17T02:05:39.018Z,-3.17
2022-12-17T02:11:07.546Z,-3.23
2022-12-17T02:16:43.201Z,-3.33
2022-12-17T02:22:14.568Z,-3.51
2022-12-17T02:27:36.587Z,-3.31
2022-12-17T02:33:00.500Z,-3.31
2022-12-17T02:38:24.960Z,-3.51
2022-12-17T02:43:47.043Z,-3.44
2022-12-17T02:49:08.887Z,-3.60
2022-12-17T02:54:32.626Z,-3.32
2022-12-17T02:59:54.419Z,-3.26
2022-12-17T03:05:43.460Z,-3.33
2022-12-17T03:10:58.230Z,-3.42
2022-12-17T03:16:20.103Z,-3.49
2022-12-17T03:21:42.403Z,-3.56
2022-12-17T03:27:04.306Z,-3.63
2022-12-17T03:32:26.115Z,-3.64
2022-12-17T03:37:47.999Z,-3.64
2022-12-17T03:43:11.738Z,-3.62
2022-12-17T03:48:33.605Z,-3.80
2022-12-17T03:53:55.411Z,-3.80
2022-12-17T03:59:17.320Z,-3.72
2022-12-17T04:04:39.204Z,-3.70
2022-12-17T04:10:01.056Z,-3.87
2022-12-17T04:15:22.914Z,-3.80
2022-12-17T04:20:44.759Z,-3.84
2022-12-17T04:26:06.622Z,-3.90
2022-12-17T04:31:28.525Z,-3.81
2022-12-17T04:36:50.486Z,-3.91
2022-12-17T04:42:12.362Z,-3.71
2022-12-17T04:47:34.198Z,-3.71
2022-12-17T04:53:04.041Z,-3.72
2022-12-17T04:58:25.860Z,-3.71
2022-12-17T05:03:47.825Z,-3.69
2022-12-17T05:09:09.864Z,-3.95
2022-12-17T05:14:31.687Z,-3.75
2022-12-17T05:19:53.499Z,-3.81
2022-12-17T05:25:15.639Z,-3.66
2022-12-17T05:30:37.515Z,-3.55
2022-12-17T05:36:00.600Z,-3.80
2022-12-17T05:41:22.477Z,-3.82
2022-12-17T05:46:44.400Z,-3.67
2022-12-17T05:52:06.266Z,-4.07
2022-12-17T05:57:28.093Z,-3.84
2022-12-17T06:02:58.191Z,-3.78
2022-12-17T06:08:20.153Z,-3.82
2022-12-17T06:13:42.050Z,-3.89
2022-12-17T06:19:03.957Z,-3.79
2022-12-17T06:24:25.778Z,-3.96
2022-12-17T06:29:47.598Z,-3.85
2022-12-17T06:35:09.710Z,-3.96
2022-12-17T06:40:31.629Z,-3.85
2022-12-17T06:45:53.468Z,-3.90
2022-12-17T06:51:15.292Z,-3.59
2022-12-17T06:56:37.196Z,-3.61
2022-12-17T07:01:59.218Z,-3.70
2022-12-17T07:07:21.157Z,-3.73
2022-12-17T07:12:43.016Z,-3.64
2022-12-17T07:18:05.159Z,-3.76
2022-12-17T07:23:27.249Z,-3.60
2022-12-17T07:28:49.173Z,-3.98
2022-12-17T07:34:10.985Z,-3.75
2022-12-17T07:39:32.814Z,-3.86
2022-12-17T07:44:54.616Z,-3.78
2022-12-17T07:50:16.440Z,-3.89
2022-12-17T07:55:38.255Z,-3.87
2022-12-17T08:01:01.071Z,-3.70
2022-12-17T08:06:22.955Z,-3.69
2022-12-17T08:11:44.898Z,-3.69
2022-12-17T08:17:06.869Z,-3.47
2022-12-17T08:22:28.757Z,-3.39
2022-12-17T08:28:00.069Z,-3.78
2022-12-17T08:33:21.977Z,-3.70
2022-12-17T08:38:45.261Z,-3.64
2022-12-17T08:44:07.071Z,-3.55
2022-12-17T08:49:30.321Z,-3.62
2022-12-17T08:54:52.220Z,-3.94
2022-12-17T09:00:14.518Z,-3.71
2022-12-17T09:05:36.463Z,-3.81
2022-12-17T09:11:00.404Z,-3.66
2022-12-17T09:16:22.783Z,-3.69
2022-12-17T09:21:44.995Z,-4.01
2022-12-17T09:27:06.847Z,-3.85
2022-12-17T09:32:28.776Z,-3.78
2022-12-17T09:37:54.698Z,-3.71
2022-12-17T09:43:30.559Z,-3.78
2022-12-17T09:49:20.042Z,-3.62
2022-12-17T09:54:48.365Z,-3.37
2022-12-17T10:00:22.823Z,-3.55
2022-12-17T10:05:46.644Z,-3.62
2022-12-17T10:11:34.219Z,-3.63
2022-12-17T10:16:56.508Z,-3.61
2022-12-17T10:22:19.939Z,-3.55
2022-12-17T10:27:41.816Z,-3.25
2022-12-17T10:33:07.958Z,-3.27
2022-12-17T10:38:30.850Z,-3.49
2022-12-17T10:43:52.760Z,-3.75
2022-12-17T10:49:20.075Z,-3.56
2022-12-17T10:54:46.988Z,-3.56
2022-12-17T11:00:50.640Z,-3.72
2022-12-17T11:06:18.534Z,-3.38
2022-12-17T11:11:40.931Z,-3.42
2022-12-17T11:17:07.232Z,-3.34
2022-12-17T11:22:43.721Z,-3.66
2022-12-17T11:28:15.360Z,-3.83
2022-12-17T11:33:50.121Z,-3.61
2022-12-17T11:39:21.633Z,-3.75
2022-12-17T11:45:10.441Z,-3.90
2022-12-17T11:50:50.787Z,-4.08
2022-12-17T11:56:26.633Z,-4.02
2022-12-17T12:02:28.777Z,-4.07
2022-12-17T12:08:22.964Z,-3.81
2022-12-17T12:14:02.833Z,-3.75
2022-12-17T12:19:51.426Z,-3.79
2022-12-17T12:25:34.978Z,-3.84
2022-12-17T12:31:12.132Z,-3.52
2022-12-17T12:36:36.083Z,-3.52
2022-12-17T12:42:12.556Z,-3.51
2022-12-17T12:47:42.259Z,-3.58
2022-12-17T12:53:04.532Z,-3.53
2022-12-17T12:58:30.524Z,-3.72
2022-12-17T13:03:55.393Z,-4.06
2022-12-17T13:09:17.143Z,-3.91
2022-12-17T13:15:06.812Z,-3.92
2022-12-17T13:20:31.922Z,-3.73
2022-12-17T13:26:12.454Z,-4.03
2022-12-17T13:31:51.111Z,-3.86
2022-12-17T13:37:31.333Z,-4.22
2022-12-17T13:42:53.214Z,-4.35
2022-12-17T13:48:24.172Z,-4.07
2022-12-17T13:53:57.546Z,-4.17
2022-12-17T13:59:21.948Z,-4.53
2022-12-17T14:04:53.003Z,-4.63
2022-12-17T14:10:20.128Z,-4.77
2022-12-17T14:15:50.899Z,-4.55
2022-12-17T14:21:13.284Z,-4.66
2022-12-17T14:26:35.113Z,-4.62
2022-12-17T14:32:02.556Z,-4.84
2022-12-17T14:37:26.048Z,-4.56
2022-12-17T14:42:48.435Z,-4.57
2022-12-17T14:48:16.012Z,-4.76
2022-12-17T14:53:38.229Z,-4.88
2022-12-17T14:59:01.813Z,-4.62
2022-12-17T15:04:24.030Z,-4.91
2022-12-17T15:09:45.834Z,-4.73
2022-12-17T15:15:11.859Z,-4.84
2022-12-17T15:20:33.585Z,-4.89
2022-12-17T15:25:55.774Z,-4.74
2022-12-17T15:31:21.866Z,-4.88
2022-12-17T15:36:46.518Z,-4.73
2022-12-17T15:42:10.147Z,-4.87
2022-12-17T15:47:32.255Z,-4.73
2022-12-17T15:52:54.155Z,-4.58
2022-12-17T15:58:16.004Z,-4.92
2022-12-17T16:03:37.979Z,-4.92
2022-12-17T16:08:59.890Z,-5.12
2022-12-17T16:14:25.947Z,-5.02
2022-12-17T16:19:47.961Z,-5.23
2022-12-17T16:25:10.118Z,-5.34
2022-12-17T16:30:31.963Z,-5.20
2022-12-17T16:35:57.145Z,-5.25
2022-12-17T16:41:20.899Z,-5.40
2022-12-17T16:46:44.523Z,-5.30
2022-12-17T16:52:06.594Z,-5.27
2022-12-17T16:57:28.549Z,-5.23
2022-12-17T17:02:53.496Z,-5.40
2022-12-17T17:08:15.856Z,-5.18
2022-12-17T17:13:38.476Z,-5.18
2022-12-17T17:19:01.090Z,-5.37
2022-12-17T17:24:23.970Z,-5.49
2022-12-17T17:29:45.761Z,-5.73
2022-12-17T17:35:07.896Z,-5.36
2022-12-17T17:40:29.736Z,-5.57
2022-12-17T17:45:51.710Z,-5.33
2022-12-17T17:51:16.022Z,-5.27
2022-12-17T17:56:40.801Z,-5.41
2022-12-17T18:02:03.003Z,-5.28
2022-12-17T18:07:26.436Z,-5.21
2022-12-17T18:12:49.034Z,-5.31
2022-12-17T18:18:14.456Z,-5.22
2022-12-17T18:23:37.318Z,-5.29
2022-12-17T18:28:59.503Z,-5.23
2022-12-17T18:34:24.563Z,-5.16
2022-12-17T18:39:46.526Z,-5.19
2022-12-17T18:45:08.787Z,-5.40
2022-12-17T18:50:30.684Z,-5.37
2022-12-17T18:55:52.929Z,-5.56
2022-12-17T19:01:19.813Z,-5.51
2022-12-17T19:06:42.764Z,-5.54
2022-12-17T19:12:06.799Z,-5.38
2022-12-17T19:17:28.584Z,-5.62
2022-12-17T19:22:50.459Z,-5.49
2022-12-17T19:28:12.343Z,-5.23
2022-12-17T19:33:34.579Z,-5.31
2022-12-17T19:38:59.299Z,-5.16
2022-12-17T19:44:21.476Z,-5.01
2022-12-17T19:49:43.423Z,-4.98
2022-12-17T19:55:05.851Z,-5.16
2022-12-17T20:00:27.824Z,-4.95
2022-12-17T20:05:50.378Z,-5.17
2022-12-17T20:11:15.679Z,-5.17
2022-12-17T20:16:51.870Z,-5.00
2022-12-17T20:22:13.804Z,-4.94
2022-12-17T20:27:35.676Z,-4.87
2022-12-17T20:32:57.734Z,-4.74
2022-12-17T20:38:20.383Z,-4.66
2022-12-17T20:43:43.118Z,-4.51
2022-12-17T20:49:05.651Z,-4.61
2022-12-17T20:54:27.879Z,-4.55
2022-12-17T20:59:50.002Z,-5.12
2022-12-17T21:05:11.832Z,-4.82
2022-12-17T21:10:33.782Z,-4.87
2022-12-17T21:15:58.001Z,-4.75
2022-12-17T21:21:24.536Z,-4.67
2022-12-17T21:26:47.126Z,-4.76
2022-12-17T21:32:09.002Z,-4.42
2022-12-17T21:37:31.058Z,-4.29
2022-12-17T21:42:52.862Z,-4.27
2022-12-17T21:48:15.366Z,-4.33
2022-12-17T21:53:37.434Z,-4.26
2022-12-17T21:59:01.073Z,-4.30
2022-12-17T22:04:23.810Z,-4.33
2022-12-17T22:09:59.029Z,-4.45
2022-12-17T22:15:32.282Z,-4.59
2022-12-17T22:21:02.304Z,-4.72
2022-12-17T22:26:24.181Z,-4.71
2022-12-17T22:31:46.009Z,-4.59
2022-12-17T22:41:27.429Z,-4.54
2022-12-17T22:44:38.631Z,-4.41
2022-12-17T22:48:32.501Z,-4.41
2022-12-17T22:53:54.609Z,-4.48
2022-12-17T22:59:18.497Z,-4.36
2022-12-17T23:04:40.382Z,-4.30
2022-12-17T23:10:02.182Z,-4.30
2022-12-17T23:15:34.040Z,-4.39
2022-12-17T23:20:56.079Z,-4.38
2022-12-17T23:26:21.902Z,-4.44
2022-12-17T23:31:43.740Z,-4.62
2022-12-17T23:37:05.810Z,-4.44
2022-12-17T23:42:27.627Z,-4.34
2022-12-17T23:47:49.436Z,-4.34
2022-12-17T23:53:11.244Z,-4.28
2022-12-17T23:58:34.462Z,-4.28
